sensor_id;sensor_type;location;lat;lon;timestamp;P1;durP1;ratioP1;P2;durP2;ratioP2
23376;SDS011;14353;46.070;13.222;2023-11-21T00:00:18;7.60;;;6.20;;
23376;SDS011;14353;46.070;13.222;2023-11-21T00:02:45;8.50;;;6.97;;
23376;SDS011;14353;46.070;13.222;2023-11-21T00:05:11;7.00;;;5.90;;
23376;SDS011;14353;46.070;13.222;2023-11-21T00:07:41;7.63;;;6.60;;
23376;SDS011;14353;46.070;13.222;2023-11-21T00:10:08;8.02;;;6.57;;
23376;SDS011;14353;46.070;13.222;2023-11-21T00:12:35;7.30;;;6.38;;
23376;SDS011;14353;46.070;13.222;2023-11-21T00:15:01;7.40;;;6.55;;
23376;SDS011;14353;46.070;13.222;2023-11-21T00:17:27;7.63;;;6.20;;
23376;SDS011;14353;46.070;13.222;2023-11-21T00:19:53;7.47;;;6.35;;
23376;SDS011;14353;46.070;13.222;2023-11-21T00:22:19;7.82;;;6.57;;
23376;SDS011;14353;46.070;13.222;2023-11-21T00:24:45;7.75;;;6.50;;
23376;SDS011;14353;46.070;13.222;2023-11-21T00:27:12;9.18;;;6.32;;
23376;SDS011;14353;46.070;13.222;2023-11-21T00:29:37;8.57;;;6.50;;
23376;SDS011;14353;46.070;13.222;2023-11-21T00:32:04;7.80;;;6.43;;
23376;SDS011;14353;46.070;13.222;2023-11-21T00:34:30;7.22;;;6.35;;
23376;SDS011;14353;46.070;13.222;2023-11-21T00:36:56;6.70;;;5.95;;
23376;SDS011;14353;46.070;13.222;2023-11-21T00:39:22;7.15;;;6.07;;
23376;SDS011;14353;46.070;13.222;2023-11-21T00:41:49;6.82;;;6.13;;
23376;SDS011;14353;46.070;13.222;2023-11-21T00:44:15;7.82;;;6.30;;
23376;SDS011;14353;46.070;13.222;2023-11-21T00:46:41;8.18;;;6.47;;
23376;SDS011;14353;46.070;13.222;2023-11-21T00:49:06;8.02;;;6.60;;
23376;SDS011;14353;46.070;13.222;2023-11-21T00:51:33;7.95;;;6.43;;
23376;SDS011;14353;46.070;13.222;2023-11-21T00:53:59;6.93;;;6.18;;
23376;SDS011;14353;46.070;13.222;2023-11-21T00:56:25;7.13;;;6.05;;
23376;SDS011;14353;46.070;13.222;2023-11-21T00:58:51;8.75;;;6.10;;
23376;SDS011;14353;46.070;13.222;2023-11-21T01:01:18;7.38;;;5.97;;
23376;SDS011;14353;46.070;13.222;2023-11-21T01:03:50;6.90;;;6.18;;
23376;SDS011;14353;46.070;13.222;2023-11-21T01:06:15;7.05;;;6.30;;
23376;SDS011;14353;46.070;13.222;2023-11-21T01:08:41;6.95;;;6.15;;
23376;SDS011;14353;46.070;13.222;2023-11-21T01:11:08;7.35;;;6.40;;
23376;SDS011;14353;46.070;13.222;2023-11-21T01:13:36;6.10;;;5.50;;
23376;SDS011;14353;46.070;13.222;2023-11-21T01:16:04;7.10;;;5.85;;
23376;SDS011;14353;46.070;13.222;2023-11-21T01:18:31;7.53;;;5.95;;
23376;SDS011;14353;46.070;13.222;2023-11-21T01:20:57;7.75;;;6.13;;
23376;SDS011;14353;46.070;13.222;2023-11-21T01:23:25;6.80;;;5.95;;
23376;SDS011;14353;46.070;13.222;2023-11-21T01:25:52;6.85;;;6.10;;
23376;SDS011;14353;46.070;13.222;2023-11-21T01:28:18;6.85;;;5.60;;
23376;SDS011;14353;46.070;13.222;2023-11-21T01:30:44;7.20;;;6.10;;
23376;SDS011;14353;46.070;13.222;2023-11-21T01:33:11;7.05;;;5.70;;
23376;SDS011;14353;46.070;13.222;2023-11-21T01:35:36;6.53;;;5.57;;
23376;SDS011;14353;46.070;13.222;2023-11-21T01:38:02;6.70;;;5.70;;
23376;SDS011;14353;46.070;13.222;2023-11-21T01:40:29;6.97;;;6.07;;
23376;SDS011;14353;46.070;13.222;2023-11-21T01:42:55;6.35;;;5.68;;
23376;SDS011;14353;46.070;13.222;2023-11-21T01:45:22;6.72;;;5.85;;
23376;SDS011;14353;46.070;13.222;2023-11-21T01:47:50;7.57;;;6.05;;
23376;SDS011;14353;46.070;13.222;2023-11-21T01:50:16;7.13;;;5.90;;
23376;SDS011;14353;46.070;13.222;2023-11-21T01:52:43;6.70;;;5.75;;
23376;SDS011;14353;46.070;13.222;2023-11-21T01:55:11;7.28;;;6.05;;
23376;SDS011;14353;46.070;13.222;2023-11-21T01:57:40;6.97;;;5.72;;
23376;SDS011;14353;46.070;13.222;2023-11-21T02:00:06;6.22;;;5.63;;
23376;SDS011;14353;46.070;13.222;2023-11-21T02:02:42;6.80;;;5.47;;
23376;SDS011;14353;46.070;13.222;2023-11-21T02:05:09;7.20;;;5.90;;
23376;SDS011;14353;46.070;13.222;2023-11-21T02:07:37;6.55;;;5.60;;
23376;SDS011;14353;46.070;13.222;2023-11-21T02:10:08;6.40;;;5.72;;
23376;SDS011;14353;46.070;13.222;2023-11-21T02:12:34;6.40;;;5.78;;
23376;SDS011;14353;46.070;13.222;2023-11-21T02:15:03;6.63;;;5.50;;
23376;SDS011;14353;46.070;13.222;2023-11-21T02:17:39;7.07;;;6.10;;
23376;SDS011;14353;46.070;13.222;2023-11-21T02:20:12;6.10;;;5.38;;
23376;SDS011;14353;46.070;13.222;2023-11-21T02:22:43;7.93;;;5.80;;
23376;SDS011;14353;46.070;13.222;2023-11-21T02:25:31;6.50;;;5.18;;
23376;SDS011;14353;46.070;13.222;2023-11-21T02:27:58;6.68;;;5.65;;
23376;SDS011;14353;46.070;13.222;2023-11-21T02:30:26;6.38;;;5.57;;
23376;SDS011;14353;46.070;13.222;2023-11-21T02:32:56;7.55;;;5.40;;
23376;SDS011;14353;46.070;13.222;2023-11-21T02:35:22;7.25;;;5.55;;
23376;SDS011;14353;46.070;13.222;2023-11-21T02:37:50;6.90;;;5.47;;
23376;SDS011;14353;46.070;13.222;2023-11-21T02:40:17;5.70;;;5.10;;
23376;SDS011;14353;46.070;13.222;2023-11-21T02:42:49;5.40;;;4.90;;
23376;SDS011;14353;46.070;13.222;2023-11-21T02:45:16;6.67;;;5.50;;
23376;SDS011;14353;46.070;13.222;2023-11-21T02:47:45;6.95;;;5.45;;
23376;SDS011;14353;46.070;13.222;2023-11-21T02:50:12;5.38;;;4.78;;
23376;SDS011;14353;46.070;13.222;2023-11-21T02:52:38;5.53;;;4.97;;
23376;SDS011;14353;46.070;13.222;2023-11-21T02:55:07;6.38;;;5.63;;
23376;SDS011;14353;46.070;13.222;2023-11-21T02:57:33;5.97;;;5.30;;
23376;SDS011;14353;46.070;13.222;2023-11-21T02:59:59;6.18;;;5.13;;
23376;SDS011;14353;46.070;13.222;2023-11-21T03:02:27;6.82;;;5.30;;
23376;SDS011;14353;46.070;13.222;2023-11-21T03:04:53;6.82;;;5.32;;
23376;SDS011;14353;46.070;13.222;2023-11-21T03:07:19;5.93;;;4.82;;
23376;SDS011;14353;46.070;13.222;2023-11-21T03:09:45;5.32;;;4.75;;
23376;SDS011;14353;46.070;13.222;2023-11-21T03:12:11;6.10;;;5.05;;
23376;SDS011;14353;46.070;13.222;2023-11-21T03:14:41;5.93;;;5.30;;
23376;SDS011;14353;46.070;13.222;2023-11-21T03:17:06;6.70;;;5.45;;
23376;SDS011;14353;46.070;13.222;2023-11-21T03:19:32;6.05;;;5.22;;
23376;SDS011;14353;46.070;13.222;2023-11-21T03:21:58;6.32;;;5.00;;
23376;SDS011;14353;46.070;13.222;2023-11-21T03:24:24;6.05;;;4.78;;
23376;SDS011;14353;46.070;13.222;2023-11-21T03:26:50;5.50;;;4.75;;
23376;SDS011;14353;46.070;13.222;2023-11-21T03:29:16;5.57;;;4.53;;
23376;SDS011;14353;46.070;13.222;2023-11-21T03:31:41;6.15;;;5.00;;
23376;SDS011;14353;46.070;13.222;2023-11-21T03:34:10;5.13;;;4.63;;
23376;SDS011;14353;46.070;13.222;2023-11-21T03:36:40;5.80;;;4.82;;
23376;SDS011;14353;46.070;13.222;2023-11-21T03:39:06;5.90;;;4.60;;
23376;SDS011;14353;46.070;13.222;2023-11-21T03:41:32;5.32;;;4.82;;
23376;SDS011;14353;46.070;13.222;2023-11-21T03:43:59;5.13;;;4.63;;
23376;SDS011;14353;46.070;13.222;2023-11-21T03:46:25;6.15;;;4.35;;
23376;SDS011;14353;46.070;13.222;2023-11-21T03:48:51;5.22;;;4.50;;
23376;SDS011;14353;46.070;13.222;2023-11-21T03:51:16;5.50;;;4.70;;
23376;SDS011;14353;46.070;13.222;2023-11-21T03:53:42;6.80;;;4.72;;
23376;SDS011;14353;46.070;13.222;2023-11-21T03:56:08;5.20;;;4.53;;
23376;SDS011;14353;46.070;13.222;2023-11-21T03:58:34;5.10;;;4.60;;
23376;SDS011;14353;46.070;13.222;2023-11-21T04:00:59;5.55;;;4.53;;
23376;SDS011;14353;46.070;13.222;2023-11-21T04:03:25;5.20;;;4.70;;
23376;SDS011;14353;46.070;13.222;2023-11-21T04:05:51;5.18;;;4.53;;
23376;SDS011;14353;46.070;13.222;2023-11-21T04:08:16;4.88;;;4.38;;
23376;SDS011;14353;46.070;13.222;2023-11-21T04:10:42;5.60;;;5.00;;
23376;SDS011;14353;46.070;13.222;2023-11-21T04:13:08;5.10;;;4.60;;
23376;SDS011;14353;46.070;13.222;2023-11-21T04:15:33;5.40;;;4.90;;
23376;SDS011;14353;46.070;13.222;2023-11-21T04:17:59;5.55;;;4.20;;
23376;SDS011;14353;46.070;13.222;2023-11-21T04:20:25;4.85;;;4.32;;
23376;SDS011;14353;46.070;13.222;2023-11-21T04:22:51;5.15;;;4.30;;
23376;SDS011;14353;46.070;13.222;2023-11-21T04:25:17;4.70;;;4.20;;
23376;SDS011;14353;46.070;13.222;2023-11-21T04:27:43;4.85;;;4.35;;
23376;SDS011;14353;46.070;13.222;2023-11-21T04:30:10;4.65;;;4.07;;
23376;SDS011;14353;46.070;13.222;2023-11-21T04:32:39;5.63;;;4.47;;
23376;SDS011;14353;46.070;13.222;2023-11-21T04:35:05;4.97;;;4.47;;
23376;SDS011;14353;46.070;13.222;2023-11-21T04:37:31;5.15;;;4.20;;
23376;SDS011;14353;46.070;13.222;2023-11-21T04:39:57;4.68;;;4.13;;
23376;SDS011;14353;46.070;13.222;2023-11-21T04:42:22;4.90;;;4.15;;
23376;SDS011;14353;46.070;13.222;2023-11-21T04:44:48;5.28;;;4.38;;
23376;SDS011;14353;46.070;13.222;2023-11-21T04:47:14;4.22;;;3.70;;
23376;SDS011;14353;46.070;13.222;2023-11-21T04:49:43;5.50;;;4.28;;
23376;SDS011;14353;46.070;13.222;2023-11-21T04:52:12;4.47;;;3.90;;
23376;SDS011;14353;46.070;13.222;2023-11-21T04:54:37;4.70;;;4.22;;
23376;SDS011;14353;46.070;13.222;2023-11-21T04:57:05;5.05;;;4.13;;
23376;SDS011;14353;46.070;13.222;2023-11-21T04:59:32;5.25;;;4.28;;
23376;SDS011;14353;46.070;13.222;2023-11-21T05:01:58;4.90;;;4.20;;
23376;SDS011;14353;46.070;13.222;2023-11-21T05:04:25;4.35;;;3.92;;
23376;SDS011;14353;46.070;13.222;2023-11-21T05:06:51;5.07;;;4.10;;
23376;SDS011;14353;46.070;13.222;2023-11-21T05:09:16;4.65;;;4.05;;
23376;SDS011;14353;46.070;13.222;2023-11-21T05:11:42;4.93;;;4.00;;
23376;SDS011;14353;46.070;13.222;2023-11-21T05:14:08;4.75;;;4.18;;
23376;SDS011;14353;46.070;13.222;2023-11-21T05:16:34;4.40;;;4.00;;
23376;SDS011;14353;46.070;13.222;2023-11-21T05:19:00;4.55;;;3.80;;
23376;SDS011;14353;46.070;13.222;2023-11-21T05:21:27;4.13;;;3.67;;
23376;SDS011;14353;46.070;13.222;2023-11-21T05:23:54;4.70;;;4.20;;
23376;SDS011;14353;46.070;13.222;2023-11-21T05:26:23;4.28;;;3.88;;
23376;SDS011;14353;46.070;13.222;2023-11-21T05:28:49;4.30;;;3.90;;
23376;SDS011;14353;46.070;13.222;2023-11-21T05:31:15;4.50;;;4.10;;
23376;SDS011;14353;46.070;13.222;2023-11-21T05:33:44;3.45;;;3.15;;
23376;SDS011;14353;46.070;13.222;2023-11-21T05:36:10;4.10;;;3.70;;
23376;SDS011;14353;46.070;13.222;2023-11-21T05:38:35;5.53;;;4.15;;
23376;SDS011;14353;46.070;13.222;2023-11-21T05:41:02;4.80;;;3.97;;
23376;SDS011;14353;46.070;13.222;2023-11-21T05:43:28;3.90;;;3.58;;
23376;SDS011;14353;46.070;13.222;2023-11-21T05:45:55;4.53;;;3.97;;
23376;SDS011;14353;46.070;13.222;2023-11-21T05:48:21;4.45;;;3.50;;
23376;SDS011;14353;46.070;13.222;2023-11-21T05:50:47;4.28;;;3.75;;
23376;SDS011;14353;46.070;13.222;2023-11-21T05:53:14;4.10;;;3.70;;
23376;SDS011;14353;46.070;13.222;2023-11-21T05:55:41;4.00;;;3.42;;
23376;SDS011;14353;46.070;13.222;2023-11-21T05:58:07;4.22;;;3.83;;
23376;SDS011;14353;46.070;13.222;2023-11-21T06:00:33;4.05;;;3.55;;
23376;SDS011;14353;46.070;13.222;2023-11-21T06:02:59;4.28;;;3.88;;
23376;SDS011;14353;46.070;13.222;2023-11-21T06:05:25;4.28;;;3.60;;
23376;SDS011;14353;46.070;13.222;2023-11-21T06:07:52;3.55;;;3.20;;
23376;SDS011;14353;46.070;13.222;2023-11-21T06:10:22;4.32;;;3.88;;
23376;SDS011;14353;46.070;13.222;2023-11-21T06:12:48;4.35;;;3.78;;
23376;SDS011;14353;46.070;13.222;2023-11-21T06:15:15;4.15;;;3.70;;
23376;SDS011;14353;46.070;13.222;2023-11-21T06:17:42;4.10;;;3.58;;
23376;SDS011;14353;46.070;13.222;2023-11-21T06:20:09;4.10;;;3.22;;
23376;SDS011;14353;46.070;13.222;2023-11-21T06:22:39;3.90;;;3.50;;
23376;SDS011;14353;46.070;13.222;2023-11-21T06:25:07;3.75;;;3.35;;
23376;SDS011;14353;46.070;13.222;2023-11-21T06:27:38;3.40;;;3.10;;
23376;SDS011;14353;46.070;13.222;2023-11-21T06:30:09;4.03;;;3.55;;
23376;SDS011;14353;46.070;13.222;2023-11-21T06:32:36;4.80;;;3.47;;
23376;SDS011;14353;46.070;13.222;2023-11-21T06:35:03;4.18;;;3.50;;
23376;SDS011;14353;46.070;13.222;2023-11-21T06:37:30;3.80;;;3.30;;
23376;SDS011;14353;46.070;13.222;2023-11-21T06:39:57;4.78;;;3.45;;
23376;SDS011;14353;46.070;13.222;2023-11-21T06:42:24;3.83;;;3.30;;
23376;SDS011;14353;46.070;13.222;2023-11-21T06:44:50;3.60;;;3.30;;
23376;SDS011;14353;46.070;13.222;2023-11-21T06:47:22;3.50;;;3.20;;
23376;SDS011;14353;46.070;13.222;2023-11-21T06:49:51;4.53;;;3.67;;
23376;SDS011;14353;46.070;13.222;2023-11-21T06:52:17;4.10;;;3.30;;
23376;SDS011;14353;46.070;13.222;2023-11-21T06:54:44;4.13;;;3.72;;
23376;SDS011;14353;46.070;13.222;2023-11-21T06:57:10;3.30;;;3.00;;
23376;SDS011;14353;46.070;13.222;2023-11-21T06:59:36;3.28;;;2.92;;
23376;SDS011;14353;46.070;13.222;2023-11-21T07:02:02;3.53;;;3.22;;
23376;SDS011;14353;46.070;13.222;2023-11-21T07:04:29;3.78;;;3.33;;
23376;SDS011;14353;46.070;13.222;2023-11-21T07:06:57;3.40;;;3.10;;
23376;SDS011;14353;46.070;13.222;2023-11-21T07:09:30;3.40;;;3.10;;
23376;SDS011;14353;46.070;13.222;2023-11-21T07:11:57;3.78;;;3.20;;
23376;SDS011;14353;46.070;13.222;2023-11-21T07:14:25;3.85;;;3.22;;
23376;SDS011;14353;46.070;13.222;2023-11-21T07:16:53;3.45;;;3.15;;
23376;SDS011;14353;46.070;13.222;2023-11-21T07:19:23;3.45;;;3.15;;
23376;SDS011;14353;46.070;13.222;2023-11-21T07:21:54;4.20;;;3.00;;
23376;SDS011;14353;46.070;13.222;2023-11-21T07:24:20;4.13;;;3.42;;
23376;SDS011;14353;46.070;13.222;2023-11-21T07:26:47;3.50;;;2.95;;
23376;SDS011;14353;46.070;13.222;2023-11-21T07:29:13;3.95;;;3.35;;
23376;SDS011;14353;46.070;13.222;2023-11-21T07:31:39;4.85;;;3.30;;
23376;SDS011;14353;46.070;13.222;2023-11-21T07:34:06;5.78;;;2.70;;
23376;SDS011;14353;46.070;13.222;2023-11-21T07:36:33;3.78;;;2.92;;
23376;SDS011;14353;46.070;13.222;2023-11-21T07:38:59;3.70;;;3.13;;
23376;SDS011;14353;46.070;13.222;2023-11-21T07:41:25;3.70;;;3.08;;
23376;SDS011;14353;46.070;13.222;2023-11-21T07:43:51;3.70;;;2.92;;
23376;SDS011;14353;46.070;13.222;2023-11-21T07:46:17;5.18;;;2.83;;
23376;SDS011;14353;46.070;13.222;2023-11-21T07:48:43;3.97;;;3.00;;
23376;SDS011;14353;46.070;13.222;2023-11-21T07:51:09;5.10;;;2.97;;
23376;SDS011;14353;46.070;13.222;2023-11-21T07:53:35;3.15;;;2.80;;
23376;SDS011;14353;46.070;13.222;2023-11-21T07:56:05;3.50;;;3.05;;
23376;SDS011;14353;46.070;13.222;2023-11-21T07:58:33;4.03;;;2.67;;
23376;SDS011;14353;46.070;13.222;2023-11-21T08:00:59;4.03;;;3.00;;
23376;SDS011;14353;46.070;13.222;2023-11-21T08:03:26;3.05;;;2.78;;
23376;SDS011;14353;46.070;13.222;2023-11-21T08:05:52;3.78;;;2.90;;
23376;SDS011;14353;46.070;13.222;2023-11-21T08:08:18;3.15;;;2.65;;
23376;SDS011;14353;46.070;13.222;2023-11-21T08:10:44;4.68;;;3.05;;
23376;SDS011;14353;46.070;13.222;2023-11-21T08:13:29;3.35;;;2.58;;
23376;SDS011;14353;46.070;13.222;2023-11-21T08:15:56;4.65;;;2.50;;
23376;SDS011;14353;46.070;13.222;2023-11-21T08:18:26;3.20;;;2.60;;
23376;SDS011;14353;46.070;13.222;2023-11-21T08:20:52;3.22;;;2.70;;
23376;SDS011;14353;46.070;13.222;2023-11-21T08:23:20;3.85;;;2.58;;
23376;SDS011;14353;46.070;13.222;2023-11-21T08:25:46;5.43;;;3.10;;
23376;SDS011;14353;46.070;13.222;2023-11-21T08:28:12;5.88;;;2.67;;
23376;SDS011;14353;46.070;13.222;2023-11-21T08:30:41;8.38;;;3.08;;
23376;SDS011;14353;46.070;13.222;2023-11-21T08:33:07;5.18;;;2.53;;
23376;SDS011;14353;46.070;13.222;2023-11-21T08:35:33;5.60;;;3.00;;
23376;SDS011;14353;46.070;13.222;2023-11-21T08:38:02;6.93;;;2.80;;
23376;SDS011;14353;46.070;13.222;2023-11-21T08:40:28;4.97;;;2.88;;
23376;SDS011;14353;46.070;13.222;2023-11-21T08:42:54;4.57;;;2.33;;
23376;SDS011;14353;46.070;13.222;2023-11-21T08:45:23;5.40;;;2.38;;
23376;SDS011;14353;46.070;13.222;2023-11-21T08:47:50;12.48;;;2.90;;
23376;SDS011;14353;46.070;13.222;2023-11-21T08:50:16;3.97;;;2.75;;
23376;SDS011;14353;46.070;13.222;2023-11-21T08:52:42;4.45;;;2.55;;
23376;SDS011;14353;46.070;13.222;2023-11-21T08:55:09;3.75;;;2.50;;
23376;SDS011;14353;46.070;13.222;2023-11-21T08:57:37;4.15;;;2.40;;
23376;SDS011;14353;46.070;13.222;2023-11-21T09:00:07;5.13;;;2.85;;
23376;SDS011;14353;46.070;13.222;2023-11-21T09:02:39;3.83;;;2.55;;
23376;SDS011;14353;46.070;13.222;2023-11-21T09:05:09;4.32;;;2.60;;
23376;SDS011;14353;46.070;13.222;2023-11-21T09:07:37;5.05;;;2.53;;
23376;SDS011;14353;46.070;13.222;2023-11-21T09:10:06;3.70;;;2.50;;
23376;SDS011;14353;46.070;13.222;2023-11-21T09:12:35;5.88;;;2.60;;
23376;SDS011;14353;46.070;13.222;2023-11-21T09:15:07;5.72;;;2.58;;
23376;SDS011;14353;46.070;13.222;2023-11-21T09:17:35;5.32;;;2.50;;
23376;SDS011;14353;46.070;13.222;2023-11-21T09:20:01;5.30;;;2.53;;
23376;SDS011;14353;46.070;13.222;2023-11-21T09:22:37;7.07;;;2.75;;
23376;SDS011;14353;46.070;13.222;2023-11-21T09:25:03;4.30;;;2.70;;
23376;SDS011;14353;46.070;13.222;2023-11-21T09:27:34;5.30;;;2.50;;
23376;SDS011;14353;46.070;13.222;2023-11-21T09:30:03;5.68;;;2.47;;
23376;SDS011;14353;46.070;13.222;2023-11-21T09:32:30;7.07;;;2.63;;
23376;SDS011;14353;46.070;13.222;2023-11-21T09:34:56;5.00;;;2.25;;
23376;SDS011;14353;46.070;13.222;2023-11-21T09:37:23;4.80;;;2.50;;
23376;SDS011;14353;46.070;13.222;2023-11-21T09:39:49;6.75;;;2.28;;
23376;SDS011;14353;46.070;13.222;2023-11-21T09:42:17;4.80;;;2.58;;
23376;SDS011;14353;46.070;13.222;2023-11-21T09:45:03;4.65;;;2.15;;
23376;SDS011;14353;46.070;13.222;2023-11-21T09:47:39;4.13;;;2.30;;
23376;SDS011;14353;46.070;13.222;2023-11-21T09:50:05;5.82;;;2.38;;
23376;SDS011;14353;46.070;13.222;2023-11-21T09:52:40;6.00;;;2.30;;
23376;SDS011;14353;46.070;13.222;2023-11-21T09:55:15;6.07;;;2.20;;
23376;SDS011;14353;46.070;13.222;2023-11-21T09:57:45;5.05;;;2.10;;
23376;SDS011;14353;46.070;13.222;2023-11-21T10:00:13;3.78;;;2.28;;
23376;SDS011;14353;46.070;13.222;2023-11-21T10:02:42;6.57;;;2.65;;
23376;SDS011;14353;46.070;13.222;2023-11-21T10:05:09;5.35;;;2.25;;
23376;SDS011;14353;46.070;13.222;2023-11-21T10:07:35;6.53;;;2.40;;
23376;SDS011;14353;46.070;13.222;2023-11-21T10:10:01;5.63;;;1.98;;
23376;SDS011;14353;46.070;13.222;2023-11-21T10:12:28;6.22;;;2.20;;
23376;SDS011;14353;46.070;13.222;2023-11-21T10:14:55;4.80;;;1.98;;
23376;SDS011;14353;46.070;13.222;2023-11-21T10:17:23;4.40;;;2.40;;
23376;SDS011;14353;46.070;13.222;2023-11-21T10:19:55;7.28;;;2.40;;
23376;SDS011;14353;46.070;13.222;2023-11-21T10:22:22;7.85;;;2.35;;
23376;SDS011;14353;46.070;13.222;2023-11-21T10:24:49;4.65;;;2.20;;
23376;SDS011;14353;46.070;13.222;2023-11-21T10:27:15;4.88;;;2.20;;
23376;SDS011;14353;46.070;13.222;2023-11-21T10:29:41;5.63;;;2.35;;
23376;SDS011;14353;46.070;13.222;2023-11-21T10:32:07;3.45;;;2.30;;
23376;SDS011;14353;46.070;13.222;2023-11-21T10:34:32;4.80;;;2.28;;
23376;SDS011;14353;46.070;13.222;2023-11-21T10:37:00;4.78;;;2.28;;
23376;SDS011;14353;46.070;13.222;2023-11-21T10:39:36;3.92;;;2.05;;
23376;SDS011;14353;46.070;13.222;2023-11-21T10:42:03;3.38;;;2.20;;
23376;SDS011;14353;46.070;13.222;2023-11-21T10:44:30;3.75;;;2.08;;
23376;SDS011;14353;46.070;13.222;2023-11-21T10:46:57;5.45;;;2.28;;
23376;SDS011;14353;46.070;13.222;2023-11-21T10:49:24;6.63;;;2.47;;
23376;SDS011;14353;46.070;13.222;2023-11-21T10:51:54;8.30;;;2.20;;
23376;SDS011;14353;46.070;13.222;2023-11-21T10:54:21;4.53;;;2.45;;
23376;SDS011;14353;46.070;13.222;2023-11-21T10:56:57;6.15;;;2.30;;
23376;SDS011;14353;46.070;13.222;2023-11-21T10:59:31;4.13;;;2.20;;
23376;SDS011;14353;46.070;13.222;2023-11-21T11:01:57;7.20;;;2.42;;
23376;SDS011;14353;46.070;13.222;2023-11-21T11:04:25;4.10;;;2.00;;
23376;SDS011;14353;46.070;13.222;2023-11-21T11:06:59;4.40;;;2.22;;
23376;SDS011;14353;46.070;13.222;2023-11-21T11:09:28;11.13;;;2.50;;
23376;SDS011;14353;46.070;13.222;2023-11-21T11:11:58;6.85;;;2.10;;
23376;SDS011;14353;46.070;13.222;2023-11-21T11:14:26;6.40;;;2.40;;
23376;SDS011;14353;46.070;13.222;2023-11-21T11:16:53;7.43;;;2.17;;
23376;SDS011;14353;46.070;13.222;2023-11-21T11:19:26;6.90;;;2.63;;
23376;SDS011;14353;46.070;13.222;2023-11-21T11:27:30;7.28;;;2.40;;
23376;SDS011;14353;46.070;13.222;2023-11-21T11:30:09;11.20;;;2.35;;
23376;SDS011;14353;46.070;13.222;2023-11-21T11:38:12;6.60;;;2.22;;
23376;SDS011;14353;46.070;13.222;2023-11-21T11:40:44;4.63;;;2.22;;
23376;SDS011;14353;46.070;13.222;2023-11-21T11:43:11;7.00;;;2.25;;
23376;SDS011;14353;46.070;13.222;2023-11-21T11:45:37;5.07;;;2.38;;
23376;SDS011;14353;46.070;13.222;2023-11-21T11:48:10;4.43;;;2.03;;
23376;SDS011;14353;46.070;13.222;2023-11-21T11:50:41;6.72;;;2.45;;
23376;SDS011;14353;46.070;13.222;2023-11-21T11:53:28;5.07;;;1.90;;
23376;SDS011;14353;46.070;13.222;2023-11-21T11:56:35;6.55;;;2.40;;
23376;SDS011;14353;46.070;13.222;2023-11-21T11:59:03;5.70;;;2.17;;
23376;SDS011;14353;46.070;13.222;2023-11-21T12:01:34;4.85;;;1.98;;
23376;SDS011;14353;46.070;13.222;2023-11-21T12:06:50;5.85;;;1.95;;
23376;SDS011;14353;46.070;13.222;2023-11-21T12:09:18;5.05;;;1.65;;
23376;SDS011;14353;46.070;13.222;2023-11-21T12:11:48;8.95;;;2.00;;
23376;SDS011;14353;46.070;13.222;2023-11-21T12:14:14;6.75;;;1.80;;
23376;SDS011;14353;46.070;13.222;2023-11-21T12:16:40;6.22;;;2.20;;
23376;SDS011;14353;46.070;13.222;2023-11-21T12:19:08;6.68;;;2.08;;
23376;SDS011;14353;46.070;13.222;2023-11-21T12:21:37;9.75;;;2.25;;
23376;SDS011;14353;46.070;13.222;2023-11-21T12:24:06;9.43;;;1.77;;
23376;SDS011;14353;46.070;13.222;2023-11-21T12:26:34;7.05;;;1.80;;
23376;SDS011;14353;46.070;13.222;2023-11-21T12:29:01;7.43;;;2.00;;
23376;SDS011;14353;46.070;13.222;2023-11-21T12:31:29;4.43;;;1.58;;
23376;SDS011;14353;46.070;13.222;2023-11-21T12:33:55;6.65;;;1.30;;
23376;SDS011;14353;46.070;13.222;2023-11-21T12:36:22;3.28;;;1.30;;
23376;SDS011;14353;46.070;13.222;2023-11-21T12:38:48;4.05;;;1.30;;
23376;SDS011;14353;46.070;13.222;2023-11-21T12:41:15;4.32;;;1.27;;
23376;SDS011;14353;46.070;13.222;2023-11-21T12:43:46;3.38;;;1.30;;
23376;SDS011;14353;46.070;13.222;2023-11-21T12:46:14;4.20;;;1.33;;
23376;SDS011;14353;46.070;13.222;2023-11-21T12:48:42;3.55;;;1.13;;
23376;SDS011;14353;46.070;13.222;2023-11-21T12:51:10;2.15;;;1.23;;
23376;SDS011;14353;46.070;13.222;2023-11-21T12:53:37;2.80;;;1.30;;
23376;SDS011;14353;46.070;13.222;2023-11-21T12:56:10;5.15;;;1.15;;
23376;SDS011;14353;46.070;13.222;2023-11-21T12:58:37;2.78;;;1.40;;
23376;SDS011;14353;46.070;13.222;2023-11-21T13:01:07;5.72;;;1.60;;
23376;SDS011;14353;46.070;13.222;2023-11-21T13:03:40;5.03;;;1.55;;
23376;SDS011;14353;46.070;13.222;2023-11-21T13:06:07;3.83;;;1.33;;
23376;SDS011;14353;46.070;13.222;2023-11-21T13:08:33;4.20;;;1.30;;
23376;SDS011;14353;46.070;13.222;2023-11-21T13:10:59;3.28;;;1.40;;
23376;SDS011;14353;46.070;13.222;2023-11-21T13:13:27;2.88;;;1.23;;
23376;SDS011;14353;46.070;13.222;2023-11-21T13:15:55;3.25;;;1.35;;
23376;SDS011;14353;46.070;13.222;2023-11-21T13:18:31;4.45;;;1.35;;
23376;SDS011;14353;46.070;13.222;2023-11-21T13:20:58;3.28;;;1.10;;
23376;SDS011;14353;46.070;13.222;2023-11-21T13:23:28;2.50;;;1.10;;
23376;SDS011;14353;46.070;13.222;2023-11-21T13:25:54;7.22;;;1.70;;
23376;SDS011;14353;46.070;13.222;2023-11-21T13:28:20;6.18;;;1.60;;
23376;SDS011;14353;46.070;13.222;2023-11-21T13:30:49;6.10;;;1.60;;
23376;SDS011;14353;46.070;13.222;2023-11-21T13:33:17;3.60;;;1.30;;
23376;SDS011;14353;46.070;13.222;2023-11-21T13:35:46;4.78;;;1.40;;
23376;SDS011;14353;46.070;13.222;2023-11-21T13:38:15;4.03;;;1.35;;
23376;SDS011;14353;46.070;13.222;2023-11-21T13:40:55;4.22;;;1.30;;
23376;SDS011;14353;46.070;13.222;2023-11-21T13:43:22;3.45;;;1.10;;
23376;SDS011;14353;46.070;13.222;2023-11-21T13:45:50;7.22;;;1.40;;
23376;SDS011;14353;46.070;13.222;2023-11-21T13:48:24;3.92;;;1.25;;
23376;SDS011;14353;46.070;13.222;2023-11-21T13:50:56;3.67;;;1.20;;
23376;SDS011;14353;46.070;13.222;2023-11-21T13:53:35;6.35;;;1.42;;
23376;SDS011;14353;46.070;13.222;2023-11-21T13:56:02;7.38;;;1.63;;
23376;SDS011;14353;46.070;13.222;2023-11-21T13:58:29;4.80;;;1.50;;
23376;SDS011;14353;46.070;13.222;2023-11-21T14:01:17;5.40;;;1.55;;
23376;SDS011;14353;46.070;13.222;2023-11-21T14:03:55;4.97;;;1.35;;
23376;SDS011;14353;46.070;13.222;2023-11-21T14:06:27;3.92;;;1.77;;
23376;SDS011;14353;46.070;13.222;2023-11-21T14:09:00;6.18;;;1.60;;
23376;SDS011;14353;46.070;13.222;2023-11-21T14:11:30;3.72;;;1.40;;
23376;SDS011;14353;46.070;13.222;2023-11-21T14:13:56;5.07;;;1.63;;
23376;SDS011;14353;46.070;13.222;2023-11-21T14:16:24;6.53;;;1.63;;
23376;SDS011;14353;46.070;13.222;2023-11-21T14:18:50;6.60;;;1.60;;
23376;SDS011;14353;46.070;13.222;2023-11-21T14:21:26;6.75;;;1.63;;
23376;SDS011;14353;46.070;13.222;2023-11-21T14:23:52;7.50;;;1.30;;
23376;SDS011;14353;46.070;13.222;2023-11-21T14:26:20;3.50;;;1.02;;
23376;SDS011;14353;46.070;13.222;2023-11-21T14:28:46;6.95;;;1.40;;
23376;SDS011;14353;46.070;13.222;2023-11-21T14:31:14;6.65;;;1.60;;
23376;SDS011;14353;46.070;13.222;2023-11-21T14:33:42;2.85;;;1.23;;
23376;SDS011;14353;46.070;13.222;2023-11-21T14:36:09;3.08;;;1.48;;
23376;SDS011;14353;46.070;13.222;2023-11-21T14:38:35;7.65;;;1.35;;
23376;SDS011;14353;46.070;13.222;2023-11-21T14:41:04;5.38;;;1.38;;
23376;SDS011;14353;46.070;13.222;2023-11-21T14:43:34;4.63;;;1.50;;
23376;SDS011;14353;46.070;13.222;2023-11-21T14:46:01;5.78;;;1.33;;
23376;SDS011;14353;46.070;13.222;2023-11-21T14:48:29;2.65;;;1.08;;
23376;SDS011;14353;46.070;13.222;2023-11-21T14:51:20;2.28;;;1.25;;